sensor_id;sensor_type;location;lat;lon;timestamp;pressure;altitude;pressure_sealevel;temperature;humidity
64844;BME280;51310;52.198;5.422;2024-01-30T00:02:14;102416.31;;;5.63;100.00
64844;BME280;51310;52.198;5.422;2024-01-30T00:04:40;102410.97;;;5.65;100.00
64844;BME280;51310;52.198;5.422;2024-01-30T00:07:06;102430.38;;;5.67;100.00
64844;BME280;51310;52.198;5.422;2024-01-30T00:09:33;102430.38;;;5.67;100.00
64844;BME280;51310;52.198;5.422;2024-01-30T00:11:58;102433.00;;;5.69;100.00
64844;BME280;51310;52.198;5.422;2024-01-30T00:14:24;102432.22;;;5.63;100.00
64844;BME280;51310;52.198;5.422;2024-01-30T00:16:51;102430.44;;;5.66;100.00
64844;BME280;51310;52.198;5.422;2024-01-30T00:19:17;102431.22;;;5.71;100.00
64844;BME280;51310;52.198;5.422;2024-01-30T00:21:43;102423.25;;;5.71;100.00
64844;BME280;51310;52.198;5.422;2024-01-30T00:24:09;102425.97;;;5.68;100.00
64844;BME280;51310;52.198;5.422;2024-01-30T00:26:35;102426.06;;;5.61;100.00
64844;BME280;51310;52.198;5.422;2024-01-30T00:29:01;102436.53;;;5.71;100.00
64844;BME280;51310;52.198;5.422;2024-01-30T00:31:27;102415.38;;;5.66;100.00
64844;BME280;51310;52.198;5.422;2024-01-30T00:33:53;102422.47;;;5.66;100.00
64844;BME280;51310;52.198;5.422;2024-01-30T00:36:19;102417.16;;;5.66;100.00
64844;BME280;51310;52.198;5.422;2024-01-30T00:38:45;102429.41;;;5.73;100.00
64844;BME280;51310;52.198;5.422;2024-01-30T00:41:11;102431.97;;;5.77;100.00
64844;BME280;51310;52.198;5.422;2024-01-30T00:43:37;102422.25;;;5.78;100.00
64844;BME280;51310;52.198;5.422;2024-01-30T00:46:03;102413.50;;;5.73;100.00
64844;BME280;51310;52.198;5.422;2024-01-30T00:48:29;102416.16;;;5.73;100.00
64844;BME280;51310;52.198;5.422;2024-01-30T00:50:55;102425.66;;;5.86;100.00
64844;BME280;51310;52.198;5.422;2024-01-30T00:53:21;102423.19;;;5.75;100.00
64844;BME280;51310;52.198;5.422;2024-01-30T00:55:47;102426.66;;;5.79;100.00
64844;BME280;51310;52.198;5.422;2024-01-30T00:58:13;102428.41;;;5.78;100.00
64844;BME280;51310;52.198;5.422;2024-01-30T01:00:39;102425.91;;;5.72;100.00
64844;BME280;51310;52.198;5.422;2024-01-30T01:03:05;102398.69;;;5.59;100.00
64844;BME280;51310;52.198;5.422;2024-01-30T01:05:31;102415.47;;;5.61;100.00
64844;BME280;51310;52.198;5.422;2024-01-30T01:07:57;102423.09;;;5.78;100.00
64844;BME280;51310;52.198;5.422;2024-01-30T01:10:23;102411.81;;;5.67;100.00
64844;BME280;51310;52.198;5.422;2024-01-30T01:12:49;102417.13;;;5.67;100.00
64844;BME280;51310;52.198;5.422;2024-01-30T01:15:15;102391.59;;;5.61;100.00
64844;BME280;51310;52.198;5.422;2024-01-30T01:17:41;102408.09;;;5.79;100.00
64844;BME280;51310;52.198;5.422;2024-01-30T01:20:08;102405.56;;;5.71;100.00
64844;BME280;51310;52.198;5.422;2024-01-30T01:22:36;102397.34;;;5.85;100.00
64844;BME280;51310;52.198;5.422;2024-01-30T01:25:04;102395.63;;;5.82;100.00
64844;BME280;51310;52.198;5.422;2024-01-30T01:27:33;102387.72;;;5.79;100.00
64844;BME280;51310;52.198;5.422;2024-01-30T01:30:00;102383.22;;;5.83;100.00
64844;BME280;51310;52.198;5.422;2024-01-30T01:32:26;102378.81;;;5.83;100.00
64844;BME280;51310;52.198;5.422;2024-01-30T01:34:52;102375.22;;;5.86;100.00
64844;BME280;51310;52.198;5.422;2024-01-30T01:37:19;102377.13;;;5.78;100.00
64844;BME280;51310;52.198;5.422;2024-01-30T01:39:47;102383.28;;;5.80;100.00
64844;BME280;51310;52.198;5.422;2024-01-30T01:42:13;102393.91;;;5.80;100.00
64844;BME280;51310;52.198;5.422;2024-01-30T01:44:38;102388.78;;;5.69;100.00
64844;BME280;51310;52.198;5.422;2024-01-30T01:47:04;102379.97;;;5.69;100.00
64844;BME280;51310;52.198;5.422;2024-01-30T01:49:31;102394.13;;;5.68;100.00
64844;BME280;51310;52.198;5.422;2024-01-30T01:51:57;102389.03;;;5.55;100.00
64844;BME280;51310;52.198;5.422;2024-01-30T01:54:24;102400.31;;;5.68;100.00
64844;BME280;51310;52.198;5.422;2024-01-30T01:56:52;102389.03;;;5.55;100.00
64844;BME280;51310;52.198;5.422;2024-01-30T01:59:20;102379.41;;;5.50;100.00
64844;BME280;51310;52.198;5.422;2024-01-30T02:01:47;102381.25;;;5.46;100.00
64844;BME280;51310;52.198;5.422;2024-01-30T02:04:16;102390.88;;;5.52;100.00
64844;BME280;51310;52.198;5.422;2024-01-30T02:06:43;102386.53;;;5.48;100.00
64844;BME280;51310;52.198;5.422;2024-01-30T02:09:09;102376.00;;;5.41;100.00
64844;BME280;51310;52.198;5.422;2024-01-30T02:11:35;102374.16;;;5.47;100.00
64844;BME280;51310;52.198;5.422;2024-01-30T02:14:05;102369.63;;;5.53;100.00
64844;BME280;51310;52.198;5.422;2024-01-30T02:16:34;102368.94;;;5.42;100.00
64844;BME280;51310;52.198;5.422;2024-01-30T02:19:00;102361.03;;;5.39;100.00
64844;BME280;51310;52.198;5.422;2024-01-30T02:21:26;102374.34;;;5.36;100.00
64844;BME280;51310;52.198;5.422;2024-01-30T02:23:52;102359.41;;;5.32;100.00
64844;BME280;51310;52.198;5.422;2024-01-30T02:26:20;102380.34;;;5.47;100.00
64844;BME280;51310;52.198;5.422;2024-01-30T02:28:46;102389.19;;;5.48;100.00
64844;BME280;51310;52.198;5.422;2024-01-30T02:31:12;102380.38;;;5.46;100.00
64844;BME280;51310;52.198;5.422;2024-01-30T02:33:38;102390.91;;;5.50;100.00
64844;BME280;51310;52.198;5.422;2024-01-30T02:36:04;102389.19;;;5.46;100.00
64844;BME280;51310;52.198;5.422;2024-01-30T02:38:30;102397.78;;;5.60;100.00
64844;BME280;51310;52.198;5.422;2024-01-30T02:40:56;102389.03;;;5.55;100.00
64844;BME280;51310;52.198;5.422;2024-01-30T02:43:22;102388.94;;;5.61;100.00
64844;BME280;51310;52.198;5.422;2024-01-30T02:45:48;102380.06;;;5.62;100.00
64844;BME280;51310;52.198;5.422;2024-01-30T02:48:14;102387.06;;;5.67;100.00
64844;BME280;51310;52.198;5.422;2024-01-30T02:50:40;102376.63;;;5.57;100.00
64844;BME280;51310;52.198;5.422;2024-01-30T02:53:06;102362.50;;;5.55;100.00
64844;BME280;51310;52.198;5.422;2024-01-30T02:55:32;102351.72;;;5.64;100.00
64844;BME280;51310;52.198;5.422;2024-01-30T02:57:58;102347.19;;;5.73;100.00
64844;BME280;51310;52.198;5.422;2024-01-30T03:00:24;102343.78;;;5.64;100.00
64844;BME280;51310;52.198;5.422;2024-01-30T03:02:50;102357.00;;;5.68;100.00
64844;BME280;51310;52.198;5.422;2024-01-30T03:05:16;102348.22;;;5.62;100.00
64844;BME280;51310;52.198;5.422;2024-01-30T03:07:42;102345.41;;;5.72;100.00
64844;BME280;51310;52.198;5.422;2024-01-30T03:10:08;102337.50;;;5.69;100.00
64844;BME280;51310;52.198;5.422;2024-01-30T03:12:34;102337.69;;;5.61;100.00
64844;BME280;51310;52.198;5.422;2024-01-30T03:14:59;102342.94;;;5.62;100.00
64844;BME280;51310;52.198;5.422;2024-01-30T03:17:26;102350.94;;;5.59;100.00
64844;BME280;51310;52.198;5.422;2024-01-30T03:19:52;102335.97;;;5.57;100.00
64844;BME280;51310;52.198;5.422;2024-01-30T03:22:17;102335.97;;;5.58;100.00
64844;BME280;51310;52.198;5.422;2024-01-30T03:24:43;102330.59;;;5.61;100.00
64844;BME280;51310;52.198;5.422;2024-01-30T03:27:09;102321.00;;;5.54;100.00
64844;BME280;51310;52.198;5.422;2024-01-30T03:29:35;102328.81;;;5.60;100.00
64844;BME280;51310;52.198;5.422;2024-01-30T03:32:01;102327.94;;;5.60;100.00
64844;BME280;51310;52.198;5.422;2024-01-30T03:34:27;102326.84;;;5.72;100.00
64844;BME280;51310;52.198;5.422;2024-01-30T03:36:53;102331.25;;;5.74;100.00
64844;BME280;51310;52.198;5.422;2024-01-30T03:39:19;102332.03;;;5.78;100.00
64844;BME280;51310;52.198;5.422;2024-01-30T03:41:45;102330.16;;;5.83;100.00
64844;BME280;51310;52.198;5.422;2024-01-30T03:44:11;102316.88;;;5.84;100.00
64844;BME280;51310;52.198;5.422;2024-01-30T03:46:37;102315.06;;;5.87;100.00
64844;BME280;51310;52.198;5.422;2024-01-30T03:49:03;102293.09;;;5.80;100.00
64844;BME280;51310;52.198;5.422;2024-01-30T03:51:29;102311.38;;;5.94;100.00
64844;BME280;51310;52.198;5.422;2024-01-30T03:53:55;102286.72;;;5.89;100.00
64844;BME280;51310;52.198;5.422;2024-01-30T03:56:21;102287.56;;;5.91;100.00
64844;BME280;51310;52.198;5.422;2024-01-30T03:58:47;102311.28;;;6.01;100.00
64844;BME280;51310;52.198;5.422;2024-01-30T04:01:14;102306.84;;;6.00;100.00
64844;BME280;51310;52.198;5.422;2024-01-30T04:03:41;102305.91;;;6.03;100.00
64844;BME280;51310;52.198;5.422;2024-01-30T04:06:09;102311.19;;;6.06;100.00
64844;BME280;51310;52.198;5.422;2024-01-30T04:08:36;102307.59;;;6.07;100.00
64844;BME280;51310;52.198;5.422;2024-01-30T04:11:06;102310.16;;;6.12;100.00
64844;BME280;51310;52.198;5.422;2024-01-30T04:13:33;102300.50;;;6.09;100.00
64844;BME280;51310;52.198;5.422;2024-01-30T04:16:00;102318.03;;;6.16;100.00
64844;BME280;51310;52.198;5.422;2024-01-30T04:18:29;102322.34;;;6.22;100.00
64844;BME280;51310;52.198;5.422;2024-01-30T04:20:55;102318.00;;;6.18;100.00
64844;BME280;51310;52.198;5.422;2024-01-30T04:23:21;102323.22;;;6.22;100.00
64844;BME280;51310;52.198;5.422;2024-01-30T04:25:47;102324.97;;;6.23;100.00
64844;BME280;51310;52.198;5.422;2024-01-30T04:28:13;102307.13;;;6.30;100.00
64844;BME280;51310;52.198;5.422;2024-01-30T04:30:39;102307.28;;;6.24;100.00
64844;BME280;51310;52.198;5.422;2024-01-30T04:33:05;102288.59;;;6.27;100.00
64844;BME280;51310;52.198;5.422;2024-01-30T04:35:31;102298.06;;;6.40;100.00
64844;BME280;51310;52.198;5.422;2024-01-30T04:37:57;102294.53;;;6.40;100.00
64844;BME280;51310;52.198;5.422;2024-01-30T04:40:24;102281.38;;;6.34;100.00
64844;BME280;51310;52.198;5.422;2024-01-30T04:42:49;102290.81;;;6.47;100.00
64844;BME280;51310;52.198;5.422;2024-01-30T04:45:15;102289.00;;;6.49;100.00
64844;BME280;51310;52.198;5.422;2024-01-30T04:47:41;102286.28;;;6.52;100.00
64844;BME280;51310;52.198;5.422;2024-01-30T04:50:08;102275.66;;;6.51;100.00
64844;BME280;51310;52.198;5.422;2024-01-30T04:52:35;102272.22;;;6.49;100.00
64844;BME280;51310;52.198;5.422;2024-01-30T04:55:01;102297.63;;;6.59;100.00
64844;BME280;51310;52.198;5.422;2024-01-30T04:57:27;102278.19;;;6.57;100.00
64844;BME280;51310;52.198;5.422;2024-01-30T04:59:53;102286.13;;;6.58;100.00
64844;BME280;51310;52.198;5.422;2024-01-30T05:02:19;102276.41;;;6.57;100.00
64844;BME280;51310;52.198;5.422;2024-01-30T05:04:45;102281.78;;;6.56;100.00
64844;BME280;51310;52.198;5.422;2024-01-30T05:07:11;102290.47;;;6.62;100.00
64844;BME280;51310;52.198;5.422;2024-01-30T05:09:36;102296.63;;;6.64;100.00
64844;BME280;51310;52.198;5.422;2024-01-30T05:12:03;102283.34;;;6.64;100.00
64844;BME280;51310;52.198;5.422;2024-01-30T05:14:29;102278.94;;;6.63;100.00
64844;BME280;51310;52.198;5.422;2024-01-30T05:16:54;102289.31;;;6.74;100.00
64844;BME280;51310;52.198;5.422;2024-01-30T05:19:20;102296.31;;;6.78;100.00
64844;BME280;51310;52.198;5.422;2024-01-30T05:21:49;102291.81;;;6.80;100.00
64844;BME280;51310;52.198;5.422;2024-01-30T05:24:15;102294.41;;;6.83;100.00
64844;BME280;51310;52.198;5.422;2024-01-30T05:26:41;102291.66;;;6.86;100.00
64844;BME280;51310;52.198;5.422;2024-01-30T05:29:07;102287.25;;;6.85;100.00
64844;BME280;51310;52.198;5.422;2024-01-30T05:31:34;102273.06;;;6.86;100.00
64844;BME280;51310;52.198;5.422;2024-01-30T05:34:00;102258.03;;;6.85;100.00
64844;BME280;51310;52.198;5.422;2024-01-30T05:36:27;102276.31;;;6.98;100.00
64844;BME280;51310;52.198;5.422;2024-01-30T05:38:53;102262.13;;;6.99;100.00
64844;BME280;51310;52.198;5.422;2024-01-30T05:41:20;102273.53;;;7.02;100.00
64844;BME280;51310;52.198;5.422;2024-01-30T05:43:47;102274.56;;;6.98;100.00
64844;BME280;51310;52.198;5.422;2024-01-30T05:46:13;102282.47;;;7.00;100.00
64844;BME280;51310;52.198;5.422;2024-01-30T05:48:39;102288.69;;;7.00;100.00
64844;BME280;51310;52.198;5.422;2024-01-30T05:51:07;102290.31;;;7.04;100.00
64844;BME280;51310;52.198;5.422;2024-01-30T05:53:34;102281.47;;;7.04;100.00
64844;BME280;51310;52.198;5.422;2024-01-30T05:56:02;102268.22;;;7.02;100.00
64844;BME280;51310;52.198;5.422;2024-01-30T05:58:28;102264.75;;;7.00;100.00
64844;BME280;51310;52.198;5.422;2024-01-30T06:00:54;102267.34;;;7.02;100.00
64844;BME280;51310;52.198;5.422;2024-01-30T06:03:20;102286.56;;;7.13;100.00
64844;BME280;51310;52.198;5.422;2024-01-30T06:05:46;102281.13;;;7.18;100.00
64844;BME280;51310;52.198;5.422;2024-01-30T06:08:12;102276.00;;;7.12;100.00
64844;BME280;51310;52.198;5.422;2024-01-30T06:10:38;102287.25;;;7.21;100.00
64844;BME280;51310;52.198;5.422;2024-01-30T06:13:04;102274.13;;;7.15;100.00
64844;BME280;51310;52.198;5.422;2024-01-30T06:15:30;102285.47;;;7.22;100.00
64844;BME280;51310;52.198;5.422;2024-01-30T06:17:58;102274.94;;;7.17;100.00
64844;BME280;51310;52.198;5.422;2024-01-30T06:20:25;102286.31;;;7.24;100.00
64844;BME280;51310;52.198;5.422;2024-01-30T06:22:51;102281.78;;;7.27;100.00
64844;BME280;51310;52.198;5.422;2024-01-30T06:25:16;102273.97;;;7.21;100.00
64844;BME280;51310;52.198;5.422;2024-01-30T06:27:43;102279.97;;;7.29;100.00
64844;BME280;51310;52.198;5.422;2024-01-30T06:30:10;102263.19;;;7.26;100.00
64844;BME280;51310;52.198;5.422;2024-01-30T06:32:36;102287.84;;;7.33;100.00
64844;BME280;51310;52.198;5.422;2024-01-30T06:35:02;102272.13;;;7.23;100.00
64844;BME280;51310;52.198;5.422;2024-01-30T06:37:28;102291.41;;;7.32;100.00
64844;BME280;51310;52.198;5.422;2024-01-30T06:39:54;102282.78;;;7.23;100.00
64844;BME280;51310;52.198;5.422;2024-01-30T06:42:20;102298.50;;;7.33;100.00
64844;BME280;51310;52.198;5.422;2024-01-30T06:44:46;102292.31;;;7.32;100.00
64844;BME280;51310;52.198;5.422;2024-01-30T06:47:12;102292.22;;;7.35;100.00
64844;BME280;51310;52.198;5.422;2024-01-30T06:49:38;102299.31;;;7.35;100.00
64844;BME280;51310;52.198;5.422;2024-01-30T06:52:07;102293.31;;;7.26;100.00
64844;BME280;51310;52.198;5.422;2024-01-30T06:54:34;102301.19;;;7.31;100.00
64844;BME280;51310;52.198;5.422;2024-01-30T06:57:00;102292.44;;;7.27;100.00
64844;BME280;51310;52.198;5.422;2024-01-30T06:59:26;102294.03;;;7.33;100.00
64844;BME280;51310;52.198;5.422;2024-01-30T07:01:52;102297.53;;;7.35;100.00
64844;BME280;51310;52.198;5.422;2024-01-30T07:04:18;102303.78;;;7.34;100.00
64844;BME280;51310;52.198;5.422;2024-01-30T07:06:44;102301.06;;;7.36;100.00
64844;BME280;51310;52.198;5.422;2024-01-30T07:09:10;102287.88;;;7.31;100.00
64844;BME280;51310;52.198;5.422;2024-01-30T07:11:36;102308.03;;;7.40;100.00
64844;BME280;51310;52.198;5.422;2024-01-30T07:14:02;102311.50;;;7.43;100.00
64844;BME280;51310;52.198;5.422;2024-01-30T07:16:31;102275.44;;;7.32;100.00
64844;BME280;51310;52.198;5.422;2024-01-30T07:18:57;102296.41;;;7.44;100.00
64844;BME280;51310;52.198;5.422;2024-01-30T07:21:23;102292.00;;;7.43;100.00
64844;BME280;51310;52.198;5.422;2024-01-30T07:23:54;102318.53;;;7.46;100.00
64844;BME280;51310;52.198;5.422;2024-01-30T07:26:21;102297.19;;;7.47;100.00
64844;BME280;51310;52.198;5.422;2024-01-30T07:28:46;102307.75;;;7.52;100.00
64844;BME280;51310;52.198;5.422;2024-01-30T07:31:12;102307.75;;;7.52;100.00
64844;BME280;51310;52.198;5.422;2024-01-30T07:33:38;102316.41;;;7.59;100.00
64844;BME280;51310;52.198;5.422;2024-01-30T07:36:05;102320.81;;;7.60;100.00
64844;BME280;51310;52.198;5.422;2024-01-30T07:38:34;102317.44;;;7.53;100.00
64844;BME280;51310;52.198;5.422;2024-01-30T07:41:00;102307.63;;;7.57;100.00
64844;BME280;51310;52.198;5.422;2024-01-30T07:43:26;102302.41;;;7.52;100.00
64844;BME280;51310;52.198;5.422;2024-01-30T07:45:52;102326.69;;;7.72;100.00
64844;BME280;51310;52.198;5.422;2024-01-30T07:48:17;102330.19;;;7.75;100.00
64844;BME280;51310;52.198;5.422;2024-01-30T07:50:43;102331.69;;;7.83;100.00
64844;BME280;51310;52.198;5.422;2024-01-30T07:53:09;102325.50;;;7.83;100.00
64844;BME280;51310;52.198;5.422;2024-01-30T07:55:35;102335.97;;;7.90;100.00
64844;BME280;51310;52.198;5.422;2024-01-30T07:58:01;102341.94;;;7.99;100.00
64844;BME280;51310;52.198;5.422;2024-01-30T08:00:29;102335.59;;;8.03;100.00
64844;BME280;51310;52.198;5.422;2024-01-30T08:02:55;102328.44;;;8.05;100.00
64844;BME280;51310;52.198;5.422;2024-01-30T08:05:21;102348.63;;;8.13;100.00
64844;BME280;51310;52.198;5.422;2024-01-30T08:07:49;102337.03;;;8.14;100.00
64844;BME280;51310;52.198;5.422;2024-01-30T08:10:15;102350.56;;;8.38;100.00
64844;BME280;51310;52.198;5.422;2024-01-30T08:12:43;102336.31;;;8.39;100.00
64844;BME280;51310;52.198;5.422;2024-01-30T08:15:10;102348.66;;;8.43;100.00
64844;BME280;51310;52.198;5.422;2024-01-30T08:17:37;102354.56;;;8.53;100.00
64844;BME280;51310;52.198;5.422;2024-01-30T08:20:04;102344.81;;;8.53;100.00
64844;BME280;51310;52.198;5.422;2024-01-30T08:22:30;102350.72;;;8.63;100.00
64844;BME280;51310;52.198;5.422;2024-01-30T08:24:56;102343.56;;;8.65;100.00
64844;BME280;51310;52.198;5.422;2024-01-30T08:27:22;102330.28;;;8.64;100.00
64844;BME280;51310;52.198;5.422;2024-01-30T08:29:48;102341.44;;;8.77;100.00
64844;BME280;51310;52.198;5.422;2024-01-30T08:32:15;102350.13;;;8.83;100.00
64844;BME280;51310;52.198;5.422;2024-01-30T08:34:42;102354.44;;;8.87;100.00
64844;BME280;51310;52.198;5.422;2024-01-30T08:37:08;102362.03;;;9.00;100.00
64844;BME280;51310;52.198;5.422;2024-01-30T08:39:34;102347.72;;;9.02;100.00
64844;BME280;51310;52.198;5.422;2024-01-30T08:42:00;102354.44;;;9.14;100.00
64844;BME280;51310;52.198;5.422;2024-01-30T08:44:26;102338.34;;;9.17;100.00
64844;BME280;51310;52.198;5.422;2024-01-30T08:46:53;102353.84;;;9.32;100.00
64844;BME280;51310;52.198;5.422;2024-01-30T08:49:20;102345.72;;;9.35;100.00
64844;BME280;51310;52.198;5.422;2024-01-30T08:51:46;102350.09;;;9.38;100.00
64844;BME280;51310;52.198;5.422;2024-01-30T08:54:12;102346.41;;;9.42;100.00
64844;BME280;51310;52.198;5.422;2024-01-30T08:56:38;102347.88;;;9.51;100.00
64844;BME280;51310;52.198;5.422;2024-01-30T08:59:04;102352.84;;;9.62;100.00
64844;BME280;51310;52.198;5.422;2024-01-30T09:01:30;102353.69;;;9.64;100.00
64844;BME280;51310;52.198;5.422;2024-01-30T09:03:56;102355.03;;;9.75;100.00
64844;BME280;51310;52.198;5.422;2024-01-30T09:06:22;102358.41;;;9.80;100.00
64844;BME280;51310;52.198;5.422;2024-01-30T09:08:49;102356.28;;;9.90;100.00
64844;BME280;51310;52.198;5.422;2024-01-30T09:11:15;102353.22;;;10.01;100.00
64844;BME280;51310;52.198;5.422;2024-01-30T09:13:42;102338.97;;;10.02;100.00
64844;BME280;51310;52.198;5.422;2024-01-30T09:16:09;102346.38;;;10.17;100.00
64844;BME280;51310;52.198;5.422;2024-01-30T09:18:35;102343.66;;;10.19;100.00
64844;BME280;51310;52.198;5.422;2024-01-30T09:21:00;102346.81;;;10.30;100.00
64844;BME280;51310;52.198;5.422;2024-01-30T09:23:28;102368.63;;;10.43;100.00
64844;BME280;51310;52.198;5.422;2024-01-30T09:25:54;102376.75;;;10.40;100.00
64844;BME280;51310;52.198;5.422;2024-01-30T09:28:21;102373.03;;;10.44;100.00
64844;BME280;51310;52.198;5.422;2024-01-30T09:30:46;102369.53;;;10.42;100.00
64844;BME280;51310;52.198;5.422;2024-01-30T09:33:12;102372.16;;;10.44;100.00
64844;BME280;51310;52.198;5.422;2024-01-30T09:35:38;102367.84;;;10.39;100.00
64844;BME280;51310;52.198;5.422;2024-01-30T09:38:04;102366.00;;;10.41;100.00
64844;BME280;51310;52.198;5.422;2024-01-30T09:40:30;102366.47;;;10.29;100.00
64844;BME280;51310;52.198;5.422;2024-01-30T09:42:56;102365.59;;;10.29;100.00
64844;BME280;51310;52.198;5.422;2024-01-30T09:45:26;102391.22;;;10.34;100.00
64844;BME280;51310;52.198;5.422;2024-01-30T09:47:53;102381.34;;;10.36;100.00
64844;BME280;51310;52.198;5.422;2024-01-30T09:50:19;102362.91;;;10.29;100.00
64844;BME280;51310;52.198;5.422;2024-01-30T09:52:49;102395.34;;;10.43;100.00
64844;BME280;51310;52.198;5.422;2024-01-30T09:55:15;102392.78;;;10.40;100.00
64844;BME280;51310;52.198;5.422;2024-01-30T09:57:42;102388.38;;;10.39;100.00
64844;BME280;51310;52.198;5.422;2024-01-30T10:00:08;102399.06;;;10.39;100.00
64844;BME280;51310;52.198;5.422;2024-01-30T10:02:35;102391.19;;;10.36;100.00
64844;BME280;51310;52.198;5.422;2024-01-30T10:05:02;102393.72;;;10.39;100.00
64844;BME280;51310;52.198;5.422;2024-01-30T10:07:28;102385.56;;;10.42;100.00
64844;BME280;51310;52.198;5.422;2024-01-30T10:09:55;102390.88;;;10.44;100.00
64844;BME280;51310;52.198;5.422;2024-01-30T10:12:22;102390.00;;;10.43;100.00
64844;BME280;51310;52.198;5.422;2024-01-30T10:14:48;102381.41;;;10.35;100.00
64844;BME280;51310;52.198;5.422;2024-01-30T10:17:14;102393.41;;;10.47;100.00
64844;BME280;51310;52.198;5.422;2024-01-30T10:19:41;102392.34;;;10.52;100.00
64844;BME280;51310;52.198;5.422;2024-01-30T10:22:09;102376.47;;;10.48;100.00
64844;BME280;51310;52.198;5.422;2024-01-30T10:24:36;102386.50;;;10.65;100.00
64844;BME280;51310;52.198;5.422;2024-01-30T10:27:02;102388.81;;;10.74;100.00
64844;BME280;51310;52.198;5.422;2024-01-30T10:29:29;102382.69;;;10.72;100.00
64844;BME280;51310;52.198;5.422;2024-01-30T10:32:02;102385.91;;;10.80;100.00
64844;BME280;51310;52.198;5.422;2024-01-30T10:34:30;102398.22;;;10.84;100.00
64844;BME280;51310;52.198;5.422;2024-01-30T10:37:10;102388.34;;;10.86;100.00
64844;BME280;51310;52.198;5.422;2024-01-30T10:39:44;102382.13;;;10.86;100.00
64844;BME280;51310;52.198;5.422;2024-01-30T10:42:17;102395.31;;;10.90;100.00
64844;BME280;51310;52.198;5.422;2024-01-30T10:47:36;102387.53;;;10.84;100.00
64844;BME280;51310;52.198;5.422;2024-01-30T10:50:03;102396.56;;;10.81;100.00
64844;BME280;51310;52.198;5.422;2024-01-30T10:52:29;102404.53;;;10.83;100.00
64844;BME280;51310;52.198;5.422;2024-01-30T10:54:57;102399.19;;;10.83;100.00
64844;BME280;51310;52.198;5.422;2024-01-30T10:57:27;102391.38;;;10.77;100.00
64844;BME280;51310;52.198;5.422;2024-01-30T11:00:10;102400.84;;;10.86;100.00
64844;BME280;51310;52.198;5.422;2024-01-30T11:02:43;102412.41;;;10.86;100.00
64844;BME280;51310;52.198;5.422;2024-01-30T11:05:11;102412.91;;;10.96;100.00
64844;BME280;51310;52.198;5.422;2024-01-30T11:07:39;102413.78;;;10.96;100.00
64844;BME280;51310;52.198;5.422;2024-01-30T11:10:08;102413.59;;;11.01;100.00
64844;BME280;51310;52.198;5.422;2024-01-30T11:12:40;102410.88;;;11.02;100.00
64844;BME280;51310;52.198;5.422;2024-01-30T11:15:11;102415.75;;;11.15;100.00
64844;BME280;51310;52.198;5.422;2024-01-30T11:20:25;102409.19;;;11.00;100.00
64844;BME280;51310;52.198;5.422;2024-01-30T11:22:55;102418.66;;;11.09;100.00
64844;BME280;51310;52.198;5.422;2024-01-30T11:25:23;102410.88;;;11.02;100.00
64844;BME280;51310;52.198;5.422;2024-01-30T11:27:55;102429.69;;;11.23;100.00
64844;BME280;51310;52.198;5.422;2024-01-30T11:35:50;102419.16;;;11.18;100.00
64844;BME280;51310;52.198;5.422;2024-01-30T11:38:16;102419.41;;;11.12;100.00
64844;BME280;51310;52.198;5.422;2024-01-30T11:40:44;102436.00;;;10.98;100.00
64844;BME280;51310;52.198;5.422;2024-01-30T11:43:09;102422.50;;;10.79;100.00
64844;BME280;51310;52.198;5.422;2024-01-30T11:45:36;102442.03;;;10.81;100.00
64844;BME280;51310;52.198;5.422;2024-01-30T11:48:03;102456.16;;;10.61;100.00
64844;BME280;51310;52.198;5.422;2024-01-30T11:50:33;102448.34;;;10.55;100.00
64844;BME280;51310;52.198;5.422;2024-01-30T11:53:00;102446.97;;;10.45;100.00
64844;BME280;51310;52.198;5.422;2024-01-30T11:55:28;102438.22;;;10.40;100.00
64844;BME280;51310;52.198;5.422;2024-01-30T11:57:58;102448.81;;;10.43;100.00
64844;BME280;51310;52.198;5.422;2024-01-30T12:00:25;102446.19;;;10.41;100.00
64844;BME280;51310;52.198;5.422;2024-01-30T12:02:52;102456.91;;;10.40;100.00
64844;BME280;51310;52.198;5.422;2024-01-30T12:05:23;102453.59;;;10.33;100.00
64844;BME280;51310;52.198;5.422;2024-01-30T12:07:50;102455.31;;;10.36;100.00
64844;BME280;51310;52.198;5.422;2024-01-30T12:10:16;102449.53;;;10.21;100.00
64844;BME280;51310;52.198;5.422;2024-01-30T12:12:49;102453.19;;;10.19;100.00
64844;BME280;51310;52.198;5.422;2024-01-30T12:15:16;102433.34;;;10.01;100.00
64844;BME280;51310;52.198;5.422;2024-01-30T12:17:44;102446.88;;;9.96;100.00
64844;BME280;51310;52.198;5.422;2024-01-30T12:20:11;102476.44;;;9.90;100.00
64844;BME280;51310;52.198;5.422;2024-01-30T12:22:41;102483.88;;;9.82;100.00
64844;BME280;51310;52.198;5.422;2024-01-30T12:25:13;102483.28;;;9.72;100.00
64844;BME280;51310;52.198;5.422;2024-01-30T12:27:43;102473.56;;;9.43;100.00
64844;BME280;51310;52.198;5.422;2024-01-30T12:30:13;102496.59;;;9.17;100.00
64844;BME280;51310;52.198;5.422;2024-01-30T12:32:42;102507.38;;;9.14;100.00
64844;BME280;51310;52.198;5.422;2024-01-30T12:35:18;102508.41;;;9.09;100.00
64844;BME280;51310;52.198;5.422;2024-01-30T12:37:46;102495.09;;;9.09;100.00
64844;BME280;51310;52.198;5.422;2024-01-30T12:40:14;102496.75;;;9.13;100.00
64844;BME280;51310;52.198;5.422;2024-01-30T12:42:41;102482.69;;;9.08;100.00
64844;BME280;51310;52.198;5.422;2024-01-30T12:45:08;102497.41;;;9.21;100.00
64844;BME280;51310;52.198;5.422;2024-01-30T12:47:35;102490.41;;;9.17;100.00
64844;BME280;51310;52.198;5.422;2024-01-30T12:50:01;102496.47;;;9.22;100.00
64844;BME280;51310;52.198;5.422;2024-01-30T12:52:27;102512.31;;;9.27;100.00
64844;BME280;51310;52.198;5.422;2024-01-30T12:54:54;102492.88;;;9.23;100.00
64844;BME280;51310;52.198;5.422;2024-01-30T12:57:20;102482.44;;;9.15;100.00